Bridgeview, Illinois
Current Conditions -  °F | °C
As of 8:13 PM on Monday 22 Dec 2014 (Local Time) from KMDW Reporting Station
Light Rain Light Rain  
Wind Chill: 36°   Ceiling: 1000
Heat Index: 43°   Visibility: 4mi
Dew Point: 40°   Wind: 14mph
Humidity: 89%   Direction: 130°SE
Pressure: 29.65"   Gusts: NA
Location:  41.75°N, 87.8°W
Report Text: KMDW 230213Z 13012KT 4SM -RA BR OVC010 06/04 A2965 RMK AO2 P0000 T00610044
Loading
Personal Weather Stations






























Interactive Weather Map New forecast layout! Learn more

10-Day Weather Forecast

Advertisements
Track Severe Weather on mobile